Time;durP1;ratioP1;P1;durP2;ratioP2;P2;SDS_P1;SDS_P2;PMS_P1;PMS_P2;Temp;Humidity;BMP_temperature;BMP_pressure;BME280_temperature;BME280_humidity;BME280_pressure;Samples;Min_cycle;Max_cycle;Signal;HPM_P1;HPM_P2
2022/08/06 00:02:00;;;;;;;2.78;2.47;;;19.50;42.60;;;;;;4814371;29;20034;-74
2022/08/06 00:04:26;;;;;;;4.65;2.90;;;19.50;42.70;;;;;;4815500;29;20040;-74
2022/08/06 00:06:52;;;;;;;5.32;3.08;;;19.50;42.90;;;;;;4816000;29;20475;-73
2022/08/06 00:09:17;;;;;;;4.20;3.00;;;19.40;42.80;;;;;;4809934;29;20030;-74
2022/08/06 00:11:43;;;;;;;4.82;3.33;;;19.30;42.60;;;;;;4815399;29;20124;-74
2022/08/06 00:14:09;;;;;;;3.13;2.83;;;19.30;42.80;;;;;;4815336;29;20477;-74
2022/08/06 00:16:35;;;;;;;3.63;3.13;;;19.30;42.90;;;;;;4816062;29;20125;-76
2022/08/06 00:19:01;;;;;;;3.55;2.92;;;19.20;42.80;;;;;;4814606;29;20173;-74
2022/08/06 00:21:27;;;;;;;5.22;2.70;;;19.20;43.00;;;;;;4818446;29;20030;-74
2022/08/06 00:23:53;;;;;;;3.35;2.85;;;19.10;42.80;;;;;;4816017;29;20035;-73
2022/08/06 00:26:19;;;;;;;4.10;2.47;;;19.10;43.00;;;;;;4816221;29;20329;-74
2022/08/06 00:28:45;;;;;;;3.25;2.28;;;19.00;42.90;;;;;;4816495;29;20271;-76
2022/08/06 00:31:11;;;;;;;2.55;2.30;;;19.00;43.00;;;;;;4816763;29;20726;-76
2022/08/06 00:33:39;;;;;;;3.30;2.55;;;19.00;43.10;;;;;;4815333;29;20041;-76
2022/08/06 00:36:05;;;;;;;3.10;2.70;;;18.80;42.80;;;;;;4815614;29;20559;-76
2022/08/06 00:38:31;;;;;;;3.97;3.05;;;18.80;43.00;;;;;;4812997;29;20050;-76
2022/08/06 00:40:57;;;;;;;2.97;2.40;;;18.70;42.90;;;;;;4811169;29;20045;-76
2022/08/06 00:43:23;;;;;;;3.63;3.03;;;18.70;43.00;;;;;;4813932;29;20034;-76
2022/08/06 00:45:49;;;;;;;3.25;2.45;;;18.70;43.10;;;;;;4817472;29;20034;-76
2022/08/06 00:48:15;;;;;;;3.50;2.10;;;18.60;43.00;;;;;;4817860;29;20049;-76
2022/08/06 00:50:41;;;;;;;2.78;2.45;;;18.60;43.10;;;;;;4815125;29;20373;-76
2022/08/06 00:53:07;;;;;;;3.03;2.58;;;18.50;43.10;;;;;;4817224;29;20490;-76
2022/08/06 00:55:34;;;;;;;3.88;2.40;;;18.50;43.20;;;;;;4815829;29;20122;-76
2022/08/06 00:58:00;;;;;;;2.65;2.30;;;18.40;43.10;;;;;;4814079;29;20071;-76
2022/08/06 01:00:26;;;;;;;3.00;2.65;;;18.40;43.20;;;;;;4814541;29;20038;-76
2022/08/06 01:02:52;;;;;;;2.72;2.53;;;18.30;43.20;;;;;;4812998;29;20327;-76
2022/08/06 01:05:17;;;;;;;2.95;2.65;;;18.40;43.40;;;;;;4798939;29;20093;-76
2022/08/06 01:07:43;;;;;;;4.68;2.70;;;18.30;43.30;;;;;;4816016;29;20063;-76
2022/08/06 01:10:09;;;;;;;4.05;2.53;;;18.20;43.20;;;;;;4810465;29;20414;-76
2022/08/06 01:12:35;;;;;;;4.43;2.63;;;18.20;43.30;;;;;;4796975;29;20094;-76
2022/08/06 01:15:05;;;;;;;3.00;2.42;;;18.20;43.40;;;;;;4815906;29;20034;-76
2022/08/06 01:18:03;;;;;;;4.13;2.83;;;18.20;43.50;;;;;;4797798;29;20027;-76
2022/08/06 01:21:09;;;;;;;2.55;2.15;;;18.10;43.40;;;;;;4816053;29;20098;-76
2022/08/06 01:23:51;;;;;;;2.72;2.47;;;18.10;43.50;;;;;;4813807;29;20065;-76
2022/08/06 01:26:27;;;;;;;3.00;2.42;;;18.00;43.30;;;;;;4817163;29;20089;-76
2022/08/06 01:29:01;;;;;;;2.70;2.42;;;18.00;43.40;;;;;;4816602;29;20405;-76
2022/08/06 01:32:07;;;;;;;3.35;2.58;;;17.90;43.30;;;;;;4815226;29;20574;-75
2022/08/06 01:34:35;;;;;;;2.90;2.55;;;17.90;43.50;;;;;;4811041;29;20102;-75
2022/08/06 01:37:14;;;;;;;3.90;2.65;;;17.90;43.60;;;;;;4814812;29;20220;-76
2022/08/06 01:39:43;;;;;;;2.65;2.45;;;17.80;43.50;;;;;;4815500;29;20080;-76
2022/08/06 01:42:11;;;;;;;3.50;2.60;;;17.80;43.50;;;;;;4809864;29;20042;-76
2022/08/06 01:44:42;;;;;;;2.70;2.42;;;17.70;43.50;;;;;;4818051;29;20057;-76
2022/08/06 01:47:11;;;;;;;2.42;2.22;;;17.70;43.60;;;;;;4818720;29;20081;-76
2022/08/06 01:49:42;;;;;;;3.42;2.70;;;17.70;43.70;;;;;;4820340;29;20509;-77
2022/08/06 01:52:10;;;;;;;4.22;2.95;;;17.60;43.60;;;;;;4819061;29;20063;-76
2022/08/06 01:54:42;;;;;;;4.30;3.20;;;17.60;43.70;;;;;;4819749;29;20027;-76
2022/08/06 01:57:10;;;;;;;3.20;2.78;;;17.60;43.80;;;;;;4818608;29;20367;-76
2022/08/06 01:59:42;;;;;;;3.38;2.90;;;17.50;43.70;;;;;;4788085;29;20493;-76
2022/08/06 02:02:13;;;;;;;3.10;2.53;;;17.40;43.60;;;;;;4817977;29;20179;-76
2022/08/06 02:04:42;;;;;;;3.15;2.38;;;17.40;43.70;;;;;;4819446;29;20041;-76
2022/08/06 02:07:10;;;;;;;3.30;2.45;;;17.40;43.80;;;;;;4822219;29;20042;-76
2022/08/06 02:09:40;;;;;;;2.83;2.40;;;17.30;43.80;;;;;;4821418;29;20043;-76
2022/08/06 02:12:19;;;;;;;2.58;2.38;;;17.30;43.90;;;;;;4796638;29;20204;-76
2022/08/06 02:14:56;;;;;;;3.40;2.40;;;17.30;44.00;;;;;;4819562;29;20026;-76
2022/08/06 02:17:27;;;;;;;2.60;2.40;;;17.20;43.80;;;;;;4817759;29;20054;-76
2022/08/06 02:19:55;;;;;;;2.75;2.28;;;17.20;43.90;;;;;;4820529;29;20068;-75
2022/08/06 02:22:22;;;;;;;2.83;2.47;;;17.20;44.00;;;;;;4817762;29;20030;-76
2022/08/06 02:24:49;;;;;;;4.68;2.70;;;17.10;43.90;;;;;;4819380;29;20434;-76
2022/08/06 02:27:17;;;;;;;3.15;2.50;;;17.10;44.00;;;;;;4818964;29;20284;-76
2022/08/06 02:29:44;;;;;;;4.30;2.55;;;17.10;44.10;;;;;;4820003;29;20117;-76
2022/08/06 02:32:13;;;;;;;2.97;2.70;;;17.00;44.00;;;;;;4802046;29;20520;-76
2022/08/06 02:34:39;;;;;;;2.75;2.55;;;17.00;44.10;;;;;;4819902;29;20955;-76
2022/08/06 02:37:20;;;;;;;3.35;2.65;;;16.90;44.00;;;;;;4819886;29;20111;-76
2022/08/06 02:39:53;;;;;;;3.33;2.83;;;16.90;44.20;;;;;;4821490;29;20197;-76
2022/08/06 02:42:52;;;;;;;3.55;2.63;;;16.80;44.10;;;;;;4818435;29;20467;-76
2022/08/06 02:45:26;;;;;;;3.35;2.22;;;16.80;44.20;;;;;;4804607;29;20218;-76
2022/08/06 02:48:19;;;;;;;3.63;2.80;;;16.80;44.30;;;;;;4801320;29;20421;-76
2022/08/06 02:50:47;;;;;;;3.10;2.58;;;16.70;44.30;;;;;;4817295;29;20046;-76
2022/08/06 02:53:24;;;;;;;3.53;2.70;;;16.70;44.20;;;;;;4817776;29;20061;-76
2022/08/06 02:55:55;;;;;;;5.03;2.88;;;16.60;44.20;;;;;;4817254;29;20030;-76
2022/08/06 02:58:43;;;;;;;4.00;3.05;;;16.60;44.30;;;;;;4801803;29;20073;-76
2022/08/06 03:01:13;;;;;;;3.25;2.85;;;16.50;44.30;;;;;;4814758;29;20042;-75
2022/08/06 03:03:42;;;;;;;3.20;2.85;;;16.50;44.30;;;;;;4814843;29;20106;-76
2022/08/06 03:06:11;;;;;;;2.97;2.38;;;16.50;44.40;;;;;;4819971;29;20069;-76
2022/08/06 03:08:37;;;;;;;3.78;2.85;;;16.40;44.30;;;;;;4820042;29;20046;-76
2022/08/06 03:11:05;;;;;;;2.83;2.42;;;16.40;44.40;;;;;;4821725;29;20042;-76
2022/08/06 03:13:33;;;;;;;3.58;2.70;;;16.40;44.50;;;;;;4817250;29;20473;-76
2022/08/06 03:16:01;;;;;;;4.40;3.00;;;16.30;44.40;;;;;;4815065;29;20104;-76
2022/08/06 03:18:29;;;;;;;3.97;3.65;;;16.30;44.60;;;;;;4816657;29;20041;-77
2022/08/06 03:20:55;;;;;;;3.65;3.20;;;16.20;44.40;;;;;;4818579;29;20487;-76
2022/08/06 03:23:22;;;;;;;3.58;3.25;;;16.20;44.60;;;;;;4817668;29;20049;-76
2022/08/06 03:25:49;;;;;;;4.05;2.95;;;16.20;44.60;;;;;;4817513;29;20040;-75
2022/08/06 03:28:16;;;;;;;4.00;2.88;;;16.20;44.70;;;;;;4816436;29;20031;-76
2022/08/06 03:30:44;;;;;;;4.63;3.20;;;16.10;44.60;;;;;;4816877;29;20041;-75
2022/08/06 03:33:14;;;;;;;4.10;3.33;;;16.10;44.70;;;;;;4819704;29;20073;-76
2022/08/06 03:35:41;;;;;;;3.85;3.33;;;16.00;44.70;;;;;;4817262;29;20034;-76
2022/08/06 03:38:11;;;;;;;3.83;3.25;;;16.00;44.70;;;;;;4817604;29;20057;-76
2022/08/06 03:40:41;;;;;;;3.70;3.30;;;15.90;44.70;;;;;;4818205;29;20129;-76
2022/08/06 03:43:08;;;;;;;5.85;4.20;;;15.90;44.70;;;;;;4817134;29;20091;-76
2022/08/06 03:45:38;;;;;;;5.43;4.18;;;15.90;44.80;;;;;;4813859;29;20030;-76
2022/08/06 03:48:06;;;;;;;4.10;3.70;;;15.80;44.70;;;;;;4817762;29;20220;-75
2022/08/06 03:50:42;;;;;;;4.00;3.00;;;15.80;44.80;;;;;;4817152;29;20054;-76
2022/08/06 03:53:17;;;;;;;3.85;3.42;;;15.70;44.70;;;;;;4803728;29;20508;-76
2022/08/06 03:55:45;;;;;;;4.32;3.92;;;15.70;44.80;;;;;;4817664;29;20030;-76
2022/08/06 03:58:14;;;;;;;3.50;2.72;;;15.70;44.90;;;;;;4818022;29;20095;-76
2022/08/06 04:00:45;;;;;;;3.50;3.20;;;15.60;44.80;;;;;;4817952;29;20108;-76
2022/08/06 04:03:13;;;;;;;4.05;3.17;;;15.60;44.90;;;;;;4816941;29;20110;-76
2022/08/06 04:05:41;;;;;;;3.40;3.10;;;15.60;45.00;;;;;;4817760;29;20042;-76
2022/08/06 04:08:09;;;;;;;5.05;3.17;;;15.50;44.90;;;;;;4802013;29;20584;-75
2022/08/06 04:10:41;;;;;;;4.18;3.38;;;15.50;45.00;;;;;;4814963;29;20050;-75
2022/08/06 04:13:09;;;;;;;4.13;2.80;;;15.50;45.10;;;;;;4815675;29;20119;-76
2022/08/06 04:15:40;;;;;;;4.07;3.63;;;15.40;44.90;;;;;;4814983;29;20038;-76
2022/08/06 04:18:12;;;;;;;3.35;3.05;;;15.40;45.00;;;;;;4789220;29;20036;-76
2022/08/06 04:20:42;;;;;;;2.75;2.50;;;15.40;45.10;;;;;;4824350;29;20034;-76
2022/08/06 04:23:09;;;;;;;3.63;3.33;;;15.30;44.90;;;;;;4832844;29;20053;-76
2022/08/06 04:25:40;;;;;;;4.90;3.83;;;15.30;45.00;;;;;;4844220;29;20045;-74
2022/08/06 04:28:06;;;;;;;3.40;3.10;;;15.30;45.10;;;;;;4843786;29;20046;-75
2022/08/06 04:30:34;;;;;;;3.65;3.17;;;15.30;45.10;;;;;;4834040;29;20050;-74
2022/08/06 04:33:03;;;;;;;4.75;3.30;;;15.20;45.10;;;;;;4800977;29;20038;-76
2022/08/06 04:35:30;;;;;;;4.22;3.28;;;15.20;45.10;;;;;;4816251;29;20249;-75
2022/08/06 04:37:57;;;;;;;5.55;3.92;;;15.20;45.20;;;;;;4801445;29;20046;-75
2022/08/06 04:40:24;;;;;;;4.30;3.65;;;15.20;45.30;;;;;;4800824;29;20039;-75
2022/08/06 04:42:50;;;;;;;3.67;3.38;;;15.10;45.20;;;;;;4816551;29;20057;-75
2022/08/06 04:45:17;;;;;;;5.05;3.55;;;15.10;45.30;;;;;;4816606;29;20126;-75
2022/08/06 04:47:45;;;;;;;4.32;3.92;;;15.10;45.40;;;;;;4810939;29;20105;-76
2022/08/06 04:50:11;;;;;;;4.03;3.50;;;15.00;45.20;;;;;;4814950;29;20065;-76
2022/08/06 04:52:37;;;;;;;4.13;3.38;;;15.00;45.30;;;;;;4815890;29;20173;-76
2022/08/06 04:55:04;;;;;;;3.95;3.55;;;15.00;45.40;;;;;;4815146;29;20132;-75
2022/08/06 04:57:30;;;;;;;4.03;3.63;;;15.00;45.40;;;;;;4801470;29;20083;-75
2022/08/06 04:59:56;;;;;;;3.60;3.28;;;14.90;45.30;;;;;;4816878;29;20034;-76
2022/08/06 05:02:21;;;;;;;4.55;3.55;;;14.90;45.40;;;;;;4816263;29;20406;-75
2022/08/06 05:04:55;;;;;;;3.85;3.28;;;14.90;45.40;;;;;;4820092;29;20038;-75
2022/08/06 05:07:31;;;;;;;4.43;4.03;;;14.90;45.50;;;;;;4785421;29;20098;-76
2022/08/06 05:09:58;;;;;;;4.38;3.88;;;14.90;45.60;;;;;;4819034;29;20037;-75
2022/08/06 05:12:27;;;;;;;5.22;3.95;;;14.90;45.60;;;;;;4819885;29;20045;-75
2022/08/06 05:14:55;;;;;;;5.22;3.70;;;14.90;45.60;;;;;;4816026;29;20031;-75
2022/08/06 05:17:26;;;;;;;4.20;3.80;;;14.80;45.40;;;;;;4814207;29;20038;-75
2022/08/06 05:19:57;;;;;;;4.63;3.40;;;14.80;45.50;;;;;;4812842;29;20060;-75
2022/08/06 05:22:25;;;;;;;4.53;3.55;;;14.80;45.50;;;;;;4813971;29;20134;-75
2022/08/06 05:24:52;;;;;;;5.68;3.47;;;14.80;45.50;;;;;;4817296;29;20041;-75
2022/08/06 05:27:18;;;;;;;4.68;4.28;;;14.80;45.60;;;;;;4813342;29;20493;-74
2022/08/06 05:29:44;;;;;;;4.97;3.92;;;14.90;45.70;;;;;;4810435;29;20042;-76
2022/08/06 05:32:10;;;;;;;5.25;3.85;;;14.90;45.70;;;;;;4811432;29;20053;-76
2022/08/06 05:34:37;;;;;;;4.88;4.07;;;14.90;46.40;;;;;;4797895;29;20034;-76
2022/08/06 05:37:03;;;;;;;6.38;4.40;;;14.90;45.70;;;;;;4811567;29;20440;-75
2022/08/06 05:39:29;;;;;;;4.90;3.45;;;15.00;45.90;;;;;;4805856;29;20164;-76
2022/08/06 05:41:55;;;;;;;4.15;3.75;;;15.00;46.00;;;;;;4815070;29;20026;-75
2022/08/06 05:44:22;;;;;;;4.60;3.50;;;15.00;45.90;;;;;;4817092;29;20042;-75
2022/08/06 05:46:54;;;;;;;5.13;3.45;;;15.10;46.00;;;;;;4812887;29;20416;-76
2022/08/06 05:49:27;;;;;;;4.13;3.40;;;15.20;46.20;;;;;;4816858;29;20139;-78
2022/08/06 05:52:23;;;;;;;4.55;3.72;;;15.20;46.00;;;;;;4807413;29;20577;-77
2022/08/06 05:55:02;;;;;;;5.80;3.47;;;15.30;46.20;;;;;;4814448;29;20031;-76
2022/08/06 05:57:50;;;;;;;4.38;3.53;;;15.40;46.10;;;;;;4799948;29;20090;-77
2022/08/06 06:00:18;;;;;;;3.65;3.28;;;15.60;46.30;;;;;;4815336;29;20050;-76
2022/08/06 06:02:48;;;;;;;5.70;4.18;;;15.70;46.30;;;;;;4813038;29;20030;-79
2022/08/06 06:05:14;;;;;;;5.78;5.13;;;15.90;46.50;;;;;;4809842;29;20043;-76
2022/08/06 06:07:41;;;;;;;8.50;6.28;;;16.00;46.50;;;;;;4815998;29;20462;-79
2022/08/06 06:10:08;;;;;;;11.10;6.50;;;16.10;46.80;;;;;;4815809;29;20037;-77
2022/08/06 06:12:36;;;;;;;6.45;5.85;;;16.20;47.00;;;;;;4810373;29;20193;-77
2022/08/06 06:15:04;;;;;;;6.63;5.97;;;16.30;47.10;;;;;;4814555;29;20050;-79
2022/08/06 06:17:36;;;;;;;24.75;7.18;;;16.40;46.90;;;;;;4797496;29;20054;-78
2022/08/06 06:20:29;;;;;;;7.97;7.28;;;16.50;46.80;;;;;;4811256;29;20030;-77
2022/08/06 06:23:13;;;;;;;7.40;6.28;;;16.60;46.60;;;;;;4808053;29;20042;-75
2022/08/06 06:26:13;;;;;;;6.82;6.13;;;16.70;46.40;;;;;;4810905;29;20030;-75
2022/08/06 06:29:04;;;;;;;7.63;6.95;;;16.90;46.70;;;;;;4820530;29;20033;-77
2022/08/06 06:32:21;;;;;;;7.05;6.35;;;17.10;46.60;;;;;;4814330;29;20050;-78
2022/08/06 06:35:21;;;;;;;7.75;6.68;;;17.30;46.60;;;;;;4791602;29;20046;-76
2022/08/06 06:38:00;;;;;;;10.52;6.97;;;17.60;46.50;;;;;;4817238;29;20137;-80
2022/08/06 06:40:54;;;;;;;7.32;6.20;;;18.00;46.50;;;;;;4816754;29;20042;-76
2022/08/06 06:43:47;;;;;;;7.38;6.45;;;18.40;46.50;;;;;;4815931;29;20042;-76
2022/08/06 06:46:20;;;;;;;7.15;6.25;;;18.80;46.40;;;;;;4816761;29;20051;-76
2022/08/06 06:48:50;;;;;;;7.38;6.70;;;19.20;46.40;;;;;;4814472;29;20565;-79
2022/08/06 06:51:40;;;;;;;6.47;5.60;;;19.50;46.20;;;;;;4812440;29;20078;-83
2022/08/06 06:54:10;;;;;;;7.05;6.32;;;19.80;46.10;;;;;;4817542;29;20031;-81
2022/08/06 06:56:41;;;;;;;7.45;6.15;;;20.10;46.20;;;;;;4800648;29;20393;-81
2022/08/06 06:59:15;;;;;;;8.15;6.18;;;20.40;46.10;;;;;;4803394;29;20086;-80
2022/08/06 07:01:42;;;;;;;6.88;6.10;;;20.70;46.10;;;;;;4818210;29;20058;-82
2022/08/06 07:04:13;;;;;;;6.75;6.15;;;21.10;46.20;;;;;;4817633;29;20038;-79
2022/08/06 07:06:40;;;;;;;7.55;6.63;;;21.50;46.20;;;;;;4817669;29;20034;-80
2022/08/06 07:09:08;;;;;;;6.70;5.95;;;21.90;46.00;;;;;;4806128;29;20038;-77
2022/08/06 07:11:36;;;;;;;7.80;6.72;;;22.30;45.90;;;;;;4817838;29;20139;-77
2022/08/06 07:14:03;;;;;;;6.93;6.18;;;22.60;45.70;;;;;;4818519;29;20038;-81
2022/08/06 07:16:32;;;;;;;7.80;7.05;;;22.90;45.70;;;;;;4818443;29;20071;-79
2022/08/06 07:19:01;;;;;;;7.38;6.15;;;23.10;45.40;;;;;;4816046;29;20030;-79
2022/08/06 07:21:28;;;;;;;7.78;6.35;;;23.30;45.30;;;;;;4799492;29;20045;-77
2022/08/06 07:23:55;;;;;;;7.25;6.65;;;23.50;45.20;;;;;;4815897;29;20034;-76
2022/08/06 07:26:23;;;;;;;8.32;5.85;;;23.60;45.00;;;;;;4816548;29;20053;-79
2022/08/06 07:28:51;;;;;;;7.10;6.22;;;23.80;44.90;;;;;;4816588;29;20508;-76
2022/08/06 07:31:19;;;;;;;8.65;6.75;;;24.00;44.70;;;;;;4813871;29;20043;-80
2022/08/06 07:33:45;;;;;;;12.98;7.05;;;24.20;44.50;;;;;;4811577;29;20090;-78
2022/08/06 07:36:15;;;;;;;7.60;6.82;;;24.50;44.50;;;;;;4800304;29;20045;-80
2022/08/06 07:38:44;;;;;;;7.53;6.57;;;24.70;44.20;;;;;;4812452;29;20058;-79
2022/08/06 07:41:12;;;;;;;7.95;6.63;;;25.00;44.00;;;;;;4814060;29;20661;-80
2022/08/06 07:43:51;;;;;;;6.50;5.88;;;25.20;43.60;;;;;;4813189;29;20027;-78
2022/08/06 07:46:20;;;;;;;9.38;6.85;;;25.30;42.90;;;;;;4814834;29;20045;-77
2022/08/06 07:48:54;;;;;;;7.10;6.22;;;25.40;42.80;;;;;;4820422;29;20398;-76
2022/08/06 07:51:42;;;;;;;7.18;6.47;;;25.30;42.70;;;;;;4819066;29;20046;-78
2022/08/06 07:54:09;;;;;;;7.05;6.45;;;25.10;42.90;;;;;;4808057;29;20034;-80
2022/08/06 07:56:38;;;;;;;8.18;6.50;;;24.90;43.20;;;;;;4815635;29;20034;-77
2022/08/06 07:59:06;;;;;;;8.35;6.43;;;24.70;43.00;;;;;;4812697;29;20030;-77
2022/08/06 08:01:32;;;;;;;7.22;6.53;;;24.50;42.90;;;;;;4811267;29;20041;-76
2022/08/06 08:06:44;;;;;;;7.43;6.30;;;24.40;42.90;;;;;;4815892;29;20196;-77
2022/08/06 08:09:14;;;;;;;7.00;6.28;;;24.40;42.90;;;;;;4819098;29;20326;-76
2022/08/06 08:11:42;;;;;;;8.55;6.28;;;24.40;42.60;;;;;;4814609;29;20038;-75
2022/08/06 08:14:10;;;;;;;8.07;5.93;;;24.40;42.50;;;;;;4817274;29;20042;-77
2022/08/06 08:16:37;;;;;;;6.97;6.32;;;24.30;42.20;;;;;;4799289;29;20586;-76
2022/08/06 08:19:21;;;;;;;7.78;6.28;;;24.30;42.10;;;;;;4814397;29;20030;-76
2022/08/06 08:21:48;;;;;;;8.45;6.45;;;24.30;41.90;;;;;;4815815;29;20129;-76
2022/08/06 08:24:15;;;;;;;7.25;6.47;;;24.30;42.10;;;;;;4815676;29;20030;-76
2022/08/06 08:26:42;;;;;;;7.38;6.65;;;24.20;41.90;;;;;;4814776;29;20038;-76
2022/08/06 08:29:09;;;;;;;6.72;5.68;;;24.10;41.70;;;;;;4797284;29;20073;-74
2022/08/06 08:31:36;;;;;;;7.22;5.68;;;23.90;41.50;;;;;;4814668;29;20076;-75
2022/08/06 08:34:02;;;;;;;7.00;5.30;;;23.80;41.50;;;;;;4815153;29;20030;-74
2022/08/06 08:36:28;;;;;;;5.47;4.88;;;23.60;41.40;;;;;;4816340;29;20134;-76
2022/08/06 08:38:57;;;;;;;6.43;5.55;;;23.40;41.40;;;;;;4815117;29;20041;-75
2022/08/06 08:41:35;;;;;;;5.60;4.60;;;23.30;41.50;;;;;;4816108;29;20461;-74
2022/08/06 08:44:06;;;;;;;5.32;4.82;;;23.10;41.30;;;;;;4813883;29;20497;-74
2022/08/06 08:46:39;;;;;;;7.47;4.95;;;23.00;41.20;;;;;;4815131;29;20056;-75
2022/08/06 08:49:06;;;;;;;;;;;22.90;41.10;;;;;;4814564;29;20529;-75
2022/08/06 08:51:36;;;;;;;6.70;4.55;;;22.90;41.20;;;;;;4813165;29;19931;-75
2022/08/06 08:54:07;;;;;;;7.13;5.47;;;22.80;41.20;;;;;;4816389;29;20034;-75
2022/08/06 08:56:35;;;;;;;5.97;4.53;;;22.70;40.90;;;;;;4817012;29;20515;-75
2022/08/06 08:59:02;;;;;;;6.25;5.32;;;22.60;40.80;;;;;;4816429;29;20045;-75
2022/08/06 09:01:28;;;;;;;5.80;4.70;;;22.60;40.80;;;;;;4814876;29;20061;-75
2022/08/06 09:03:54;;;;;;;7.75;5.20;;;22.50;40.70;;;;;;4814361;29;20038;-75
2022/08/06 09:06:21;;;;;;;7.18;5.18;;;22.50;40.70;;;;;;4814667;29;20779;-74
2022/08/06 09:08:47;;;;;;;6.13;4.68;;;22.50;40.70;;;;;;4818136;29;20034;-76
2022/08/06 09:11:14;;;;;;;6.30;4.88;;;22.50;40.70;;;;;;4812752;29;20098;-74
2022/08/06 09:13:40;;;;;;;5.13;3.88;;;22.50;40.60;;;;;;4813083;29;20087;-75
2022/08/06 09:16:07;;;;;;;5.50;4.57;;;22.60;40.70;;;;;;4798067;29;20026;-75
2022/08/06 09:18:33;;;;;;;6.82;3.88;;;22.60;40.60;;;;;;4812786;29;20037;-76
2022/08/06 09:21:01;;;;;;;5.82;4.38;;;22.70;40.60;;;;;;4815979;29;20112;-76
2022/08/06 09:23:27;;;;;;;5.00;3.50;;;22.70;40.70;;;;;;4816712;29;20041;-76
2022/08/06 09:25:54;;;;;;;7.10;3.75;;;22.80;40.60;;;;;;4814720;29;20038;-76
2022/08/06 09:28:30;;;;;;;4.13;3.70;;;22.80;40.40;;;;;;4814370;29;20042;-76
2022/08/06 09:31:06;;;;;;;6.53;3.90;;;22.90;40.40;;;;;;4796427;29;20061;-76
2022/08/06 09:33:36;;;;;;;5.22;4.03;;;23.00;40.50;;;;;;4815631;29;20042;-76
2022/08/06 09:36:10;;;;;;;6.15;3.95;;;23.00;40.30;;;;;;4814713;29;20191;-76
2022/08/06 09:38:53;;;;;;;5.22;3.70;;;23.10;40.40;;;;;;4813502;29;20562;-76
2022/08/06 09:41:21;;;;;;;9.75;5.88;;;23.20;41.00;;;;;;4815680;29;20098;-76
2022/08/06 09:43:50;;;;;;;7.45;4.90;;;23.20;40.30;;;;;;4813656;29;20035;-76
2022/08/06 09:46:18;;;;;;;6.82;4.70;;;23.20;40.10;;;;;;4814343;29;20129;-77
2022/08/06 09:49:00;;;;;;;8.02;4.93;;;23.30;40.20;;;;;;4812813;29;20027;-75
2022/08/06 09:51:27;;;;;;;5.43;4.28;;;23.40;40.30;;;;;;4797870;29;20087;-76
2022/08/06 09:53:58;;;;;;;5.63;4.35;;;23.50;40.50;;;;;;4814921;29;20031;-76
2022/08/06 09:56:25;;;;;;;6.50;4.57;;;23.50;40.30;;;;;;4798485;29;20180;-76
2022/08/06 09:59:01;;;;;;;7.45;5.05;;;23.50;40.10;;;;;;4813605;29;20658;-76
2022/08/06 10:01:28;;;;;;;8.02;5.95;;;23.60;40.20;;;;;;4814424;29;20058;-76
2022/08/06 10:03:56;;;;;;;5.93;5.32;;;23.60;40.20;;;;;;4816692;29;20034;-76
2022/08/06 10:06:23;;;;;;;6.45;5.70;;;23.70;40.40;;;;;;4817731;29;20058;-76
2022/08/06 10:09:05;;;;;;;6.63;5.43;;;23.70;40.40;;;;;;4819161;29;20401;-76
2022/08/06 10:11:39;;;;;;;6.38;4.43;;;23.80;40.60;;;;;;4819218;29;20107;-76
2022/08/06 10:14:05;;;;;;;5.60;4.00;;;23.80;40.40;;;;;;4819743;29;20035;-76
2022/08/06 10:16:31;;;;;;;4.43;3.70;;;23.80;40.40;;;;;;4819120;29;20412;-76
2022/08/06 10:18:59;;;;;;;9.95;4.15;;;23.80;40.20;;;;;;4820206;29;20026;-76
2022/08/06 10:21:32;;;;;;;4.15;3.38;;;23.80;40.10;;;;;;4824987;29;20030;-76
2022/08/06 10:24:02;;;;;;;5.18;3.72;;;23.90;40.10;;;;;;4824226;29;20046;-77
2022/08/06 10:26:32;;;;;;;5.20;3.30;;;23.90;39.90;;;;;;4838674;29;20338;-76
2022/08/06 10:29:06;;;;;;;5.72;3.88;;;24.00;39.90;;;;;;4837717;29;20034;-76
2022/08/06 10:31:34;;;;;;;3.20;2.90;;;24.00;39.70;;;;;;4838813;29;20025;-76
2022/08/06 10:34:09;;;;;;;4.47;2.95;;;24.10;39.80;;;;;;4835352;29;20034;-76
2022/08/06 10:36:40;;;;;;;5.95;3.42;;;24.10;39.50;;;;;;4802457;29;20084;-76
2022/08/06 10:39:07;;;;;;;3.53;2.97;;;24.20;39.60;;;;;;4804750;29;20026;-76
2022/08/06 10:41:35;;;;;;;5.38;4.07;;;24.20;39.40;;;;;;4819834;29;20054;-76
2022/08/06 10:44:02;;;;;;;5.13;3.42;;;24.20;39.40;;;;;;4816104;29;20267;-75
2022/08/06 10:46:29;;;;;;;16.75;4.43;;;24.30;39.50;;;;;;4819256;29;20027;-76
2022/08/06 10:48:56;;;;;;;4.63;3.67;;;24.40;39.60;;;;;;4783478;29;20034;-76
2022/08/06 10:51:23;;;;;;;5.43;3.80;;;24.40;39.50;;;;;;4818785;29;20125;-76
2022/08/06 10:53:49;;;;;;;5.55;3.72;;;24.50;39.60;;;;;;4819456;29;20458;-76
2022/08/06 10:56:17;;;;;;;4.85;3.28;;;24.60;39.60;;;;;;4819142;29;20038;-76
2022/08/06 10:58:43;;;;;;;4.05;3.63;;;24.70;39.60;;;;;;4818785;29;20125;-76
2022/08/06 11:01:16;;;;;;;6.13;3.70;;;24.70;39.50;;;;;;4800949;29;20034;-76
2022/08/06 11:03:58;;;;;;;;;;;24.70;39.30;;;;;;4816006;29;20058;-76
2022/08/06 11:06:59;;;;;;;5.57;3.35;;;24.80;39.50;;;;;;4816691;29;20302;-76
2022/08/06 11:09:47;;;;;;;4.90;3.30;;;24.90;39.50;;;;;;4792823;29;20394;-76
2022/08/06 11:12:13;;;;;;;3.65;2.88;;;24.90;39.20;;;;;;4796465;29;20915;-76
2022/08/06 11:14:40;;;;;;;4.93;2.50;;;25.00;39.40;;;;;;4798671;29;20102;-76
2022/08/06 11:17:07;;;;;;;5.18;2.70;;;25.10;39.10;;;;;;4810766;29;20138;-76
2022/08/06 11:19:45;;;;;;;5.63;3.00;;;25.10;38.90;;;;;;4816736;29;20083;-76
2022/08/06 11:22:32;;;;;;;4.30;2.70;;;25.20;38.50;;;;;;4817137;29;20034;-76
2022/08/06 11:24:58;;;;;;;4.90;2.92;;;25.30;38.40;;;;;;4818382;29;20110;-81
2022/08/06 11:27:46;;;;;;;3.40;2.58;;;25.30;38.50;;;;;;4815491;29;20077;-80
2022/08/06 11:30:12;;;;;;;4.28;3.15;;;25.50;38.40;;;;;;4818138;29;20494;-79
2022/08/06 11:32:49;;;;;;;5.03;2.80;;;25.50;38.60;;;;;;4815009;29;20411;-79
2022/08/06 11:35:33;;;;;;;3.03;2.65;;;25.60;38.50;;;;;;4815608;29;20038;-78
2022/08/06 11:38:00;;;;;;;6.40;3.35;;;25.70;38.40;;;;;;4812061;29;20467;-77
2022/08/06 11:40:27;;;;;;;4.25;2.80;;;25.80;38.40;;;;;;4816239;29;20098;-78
2022/08/06 11:42:53;;;;;;;4.05;1.95;;;25.90;38.40;;;;;;4815241;29;20892;-78
2022/08/06 11:45:19;;;;;;;5.93;2.47;;;25.90;38.20;;;;;;4813363;29;20038;-78
2022/08/06 11:48:05;;;;;;;5.50;3.20;;;26.10;38.10;;;;;;4808782;29;20031;-78
2022/08/06 11:50:31;;;;;;;4.38;2.38;;;26.10;37.70;;;;;;4816261;29;20553;-77
2022/08/06 11:52:57;;;;;;;3.13;2.40;;;26.20;37.80;;;;;;4816145;29;20409;-76
2022/08/06 11:55:23;;;;;;;3.67;2.53;;;26.10;37.50;;;;;;4816933;29;20396;-76
2022/08/06 11:58:12;;;;;;;2.83;2.47;;;26.10;37.40;;;;;;4816141;29;20446;-79
2022/08/06 12:00:59;;;;;;;4.90;3.22;;;26.10;37.40;;;;;;4818200;29;20038;-78
2022/08/06 12:03:39;;;;;;;3.20;2.40;;;26.20;37.10;;;;;;4814978;29;20153;-78
2022/08/06 12:06:21;;;;;;;4.85;2.65;;;26.20;37.10;;;;;;4813178;29;20041;-79
2022/08/06 12:09:09;;;;;;;5.68;2.58;;;26.40;37.10;;;;;;4812500;29;20384;-77
2022/08/06 12:11:35;;;;;;;3.20;2.85;;;26.40;37.00;;;;;;4814737;29;20042;-77
2022/08/06 12:14:02;;;;;;;3.42;2.42;;;26.50;37.10;;;;;;4815040;29;20037;-76
2022/08/06 12:16:38;;;;;;;3.88;2.50;;;26.60;36.90;;;;;;4817035;29;20062;-77
2022/08/06 12:19:11;;;;;;;5.00;2.50;;;26.70;36.60;;;;;;4808035;29;20035;-79
2022/08/06 12:21:39;;;;;;;3.95;2.67;;;26.70;36.50;;;;;;4800078;29;20349;-80
2022/08/06 12:24:06;;;;;;;8.02;2.90;;;26.70;36.40;;;;;;4818406;29;20133;-78
2022/08/06 12:26:33;;;;;;;5.82;2.97;;;26.80;36.40;;;;;;4797102;29;20091;-78
2022/08/06 12:29:04;;;;;;;5.38;3.42;;;26.90;36.50;;;;;;4814357;29;20030;-76
2022/08/06 12:31:32;;;;;;;5.30;3.38;;;27.00;36.50;;;;;;4813361;29;20060;-76
2022/08/06 12:33:59;;;;;;;3.90;2.95;;;27.10;36.40;;;;;;4813271;29;20633;-77
2022/08/06 12:36:29;;;;;;;5.20;2.92;;;27.10;36.30;;;;;;4814398;29;20034;-77
2022/08/06 12:38:57;;;;;;;3.72;2.55;;;27.20;36.20;;;;;;4813953;29;20046;-76
2022/08/06 12:41:32;;;;;;;3.55;2.85;;;27.30;36.20;;;;;;4814796;29;20030;-77
2022/08/06 12:43:58;;;;;;;5.50;2.53;;;27.50;36.70;;;;;;4814932;29;20034;-78
2022/08/06 12:46:25;;;;;;;3.10;2.78;;;27.50;36.10;;;;;;4820460;29;20030;-77
2022/08/06 12:48:51;;;;;;;3.10;2.80;;;27.50;36.10;;;;;;4811422;29;20033;-80
2022/08/06 12:51:18;;;;;;;5.40;3.00;;;27.70;36.20;;;;;;4820854;29;20050;-79
2022/08/06 12:53:48;;;;;;;3.95;2.25;;;27.70;36.10;;;;;;4814591;29;20046;-78
2022/08/06 12:56:18;;;;;;;3.15;2.50;;;27.80;36.00;;;;;;4817087;29;20065;-78
2022/08/06 12:58:45;;;;;;;4.00;2.65;;;28.00;36.00;;;;;;4819934;29;20065;-79
2022/08/06 13:01:14;;;;;;;3.10;2.80;;;28.00;35.90;;;;;;4817930;29;20534;-79
2022/08/06 13:03:45;;;;;;;4.57;2.22;;;28.20;35.90;;;;;;4816375;29;20031;-78
2022/08/06 13:06:12;;;;;;;3.00;2.60;;;28.30;35.80;;;;;;4798947;29;20054;-77
2022/08/06 13:08:39;;;;;;;6.28;2.97;;;28.40;35.70;;;;;;4816853;29;20037;-75
2022/08/06 13:11:05;;;;;;;3.58;2.85;;;28.50;36.10;;;;;;4798677;29;20039;-76